Pertusola — IBER — position and weather

sailwx.info

Track history (hours):
 
Tides and Currents Weather Stations Pressure Air Temp Water Temp Dewpoint Dewpoint Depression Visibility Wind Speed Wind Dir Waves Ship Positions

Pertusola

Last reported at 2015-Aug-31 18:27 UTC. Time now 2015-Sep-05 01:10 UTC.
Position N 36°28' W 001°11'.

Length 145 m; draft 6.9 m.

Type: Ship (hazmat cat A). MMSI: 247399000.

Date/timePositionNaut miles runAvg speedWind from/ knotsBaromVisibWave heightAir tempDewpointWater temp
2015-Aug-31 18:27N 36°28' W 001°11'1414.7
2015-Aug-31 17:32N 36°25' W 001°28'1614.6
2015-Aug-31 16:26N 36°21' W 001°47'2914.0
2015-Aug-31 14:22N 36°16' W 002°22'1614.1
2015-Aug-31 13:16N 36°13' W 002°41'19415.3
2015-Aug-31 00:33N 35°55' W 006°40'1514.9
2015-Aug-30 23:33N 35°59' W 006°58'1515.1
2015-Aug-30 22:33N 36°03' W 007°16'1514.7
2015-Aug-30 21:33N 36°07' W 007°34'1815.0
2015-Aug-30 20:22N 36°11' W 007°55'1315.4
2015-Aug-30 19:33N 36°15' W 008°10'1515.0
2015-Aug-30 18:33N 36°18' W 008°28'1514.8
2015-Aug-30 17:34N 36°21' W 008°46'1514.8
2015-Aug-30 16:34N 36°25' W 009°04'1514.8
2015-Aug-30 15:34N 36°30' W 009°21'1515.3
2015-Aug-30 14:34N 36°41' W 009°34'1514.6
2015-Aug-30 13:34N 36°55' W 009°41'1615.1
2015-Aug-30 12:31N 37°10' W 009°46'1515.4
2015-Aug-30 11:33N 37°25' W 009°50'1414.2
2015-Aug-30 10:33N 37°38' W 009°54'1414.1
2015-Aug-30 09:33N 37°52' W 009°58'1514.7
2015-Aug-30 08:33N 38°06' W 010°02'1515.1
2015-Aug-30 07:33N 38°21' W 010°07'1514.8
2015-Aug-30 06:33N 38°36' W 010°11'1514.8
2015-Aug-30 05:34N 38°50' W 010°12'1515.1
2015-Aug-30 04:33N 39°05' W 010°12'1514.7
2015-Aug-30 03:33N 39°20' W 010°13'1814.8
2015-Aug-30 02:20N 39°38' W 010°13'1915.0
2015-Aug-30 01:05N 39°57' W 010°13'814.8
2015-Aug-30 00:33N 40°05' W 010°13'4814.9
2015-Aug-29 21:21N 40°53' W 010°13'  
2015-Aug-26 14:32N 45°36' W 001°26'0 0.1
2015-Aug-26 13:08N 45°36' W 001°26'0 0.0
2015-Aug-26 12:29N 45°36' W 001°26'0 0.0
2015-Aug-26 05:32N 45°36' W 001°26'0 0.0
2015-Aug-26 04:29N 45°36' W 001°26'0 0.0
2015-Aug-26 03:32N 45°36' W 001°26'0 0.1
2015-Aug-26 02:32N 45°36' W 001°26'0 0.0
2015-Aug-26 01:32N 45°36' W 001°26'0 0.0
2015-Aug-26 00:27N 45°36' W 001°26'53510.5
2015-Aug-23 21:33N 39°18' W 009°58'1211.9
2015-Aug-23 20:33N 39°06' W 009°58'1312.6
2015-Aug-23 19:33N 38°54' W 009°58'1312.7
2015-Aug-23 18:33N 38°41' W 009°57'1313.2
2015-Aug-23 17:33N 38°28' W 009°54'1413.5
2015-Aug-23 16:33N 38°15' W 009°50'1313.4
2015-Aug-23 15:33N 38°02' W 009°46'1613.4
2015-Aug-23 14:20N 37°46' W 009°41'7612.4
2015-Aug-23 08:10N 36°37' W 008°59'914.1
2015-Aug-23 07:32N 36°35' W 008°48'3314.1
2015-Aug-23 05:13N 36°27' W 008°08'914.0
2015-Aug-23 04:33N 36°25' W 007°57'305 9.8
2015-Aug-21 21:32N 36°10' W 001°39'2014.0
2015-Aug-21 20:06N 36°10' W 001°14'913.9
2015-Aug-21 19:27N 36°10' W 001°03'1213.9
2015-Aug-21 18:33N 36°09' W 000°47'  
Track history (hours):
 
Tides and Currents Weather Stations Pressure Air Temp Water Temp Dewpoint Dewpoint Depression Visibility Wind Speed Wind Dir Waves Ship Positions

Pertusola

Last reported at 2015-Aug-31 18:27 UTC. Time now 2015-Sep-05 01:10 UTC.
Position N 36°28' W 001°11'.

Length 145 m; draft 6.9 m.

Type: Ship (hazmat cat A). MMSI: 247399000.

Date/timePositionNaut miles runAvg speedWind from/ knotsBaromVisibWave heightAir tempDewpointWater temp
2015-Aug-31 18:27N 36°28' W 001°11'1414.7
2015-Aug-31 17:32N 36°25' W 001°28'1614.6
2015-Aug-31 16:26N 36°21' W 001°47'2914.0
2015-Aug-31 14:22N 36°16' W 002°22'1614.1
2015-Aug-31 13:16N 36°13' W 002°41'19415.3
2015-Aug-31 00:33N 35°55' W 006°40'1514.9
2015-Aug-30 23:33N 35°59' W 006°58'1515.1
2015-Aug-30 22:33N 36°03' W 007°16'1514.7
2015-Aug-30 21:33N 36°07' W 007°34'1815.0
2015-Aug-30 20:22N 36°11' W 007°55'1315.4
2015-Aug-30 19:33N 36°15' W 008°10'1515.0
2015-Aug-30 18:33N 36°18' W 008°28'1514.8
2015-Aug-30 17:34N 36°21' W 008°46'1514.8
2015-Aug-30 16:34N 36°25' W 009°04'1514.8
2015-Aug-30 15:34N 36°30' W 009°21'1515.3
2015-Aug-30 14:34N 36°41' W 009°34'1514.6
2015-Aug-30 13:34N 36°55' W 009°41'1615.1
2015-Aug-30 12:31N 37°10' W 009°46'1515.4
2015-Aug-30 11:33N 37°25' W 009°50'1414.2
2015-Aug-30 10:33N 37°38' W 009°54'1414.1
2015-Aug-30 09:33N 37°52' W 009°58'1514.7
2015-Aug-30 08:33N 38°06' W 010°02'1515.1
2015-Aug-30 07:33N 38°21' W 010°07'1514.8
2015-Aug-30 06:33N 38°36' W 010°11'1514.8
2015-Aug-30 05:34N 38°50' W 010°12'1515.1
2015-Aug-30 04:33N 39°05' W 010°12'1514.7
2015-Aug-30 03:33N 39°20' W 010°13'1814.8
2015-Aug-30 02:20N 39°38' W 010°13'1915.0
2015-Aug-30 01:05N 39°57' W 010°13'814.8
2015-Aug-30 00:33N 40°05' W 010°13'4814.9
2015-Aug-29 21:21N 40°53' W 010°13'  
2015-Aug-26 14:32N 45°36' W 001°26'0 0.1
2015-Aug-26 13:08N 45°36' W 001°26'0 0.0
2015-Aug-26 12:29N 45°36' W 001°26'0 0.0
2015-Aug-26 05:32N 45°36' W 001°26'0 0.0
2015-Aug-26 04:29N 45°36' W 001°26'0 0.0
2015-Aug-26 03:32N 45°36' W 001°26'0 0.1
2015-Aug-26 02:32N 45°36' W 001°26'0 0.0
2015-Aug-26 01:32N 45°36' W 001°26'0 0.0
2015-Aug-26 00:27N 45°36' W 001°26'53510.5
2015-Aug-23 21:33N 39°18' W 009°58'1211.9
2015-Aug-23 20:33N 39°06' W 009°58'1312.6
2015-Aug-23 19:33N 38°54' W 009°58'1312.7
2015-Aug-23 18:33N 38°41' W 009°57'1313.2
2015-Aug-23 17:33N 38°28' W 009°54'1413.5
2015-Aug-23 16:33N 38°15' W 009°50'1313.4
2015-Aug-23 15:33N 38°02' W 009°46'1613.4
2015-Aug-23 14:20N 37°46' W 009°41'7612.4
2015-Aug-23 08:10N 36°37' W 008°59'914.1
2015-Aug-23 07:32N 36°35' W 008°48'3314.1
2015-Aug-23 05:13N 36°27' W 008°08'914.0
2015-Aug-23 04:33N 36°25' W 007°57'305 9.8
2015-Aug-21 21:32N 36°10' W 001°39'2014.0
2015-Aug-21 20:06N 36°10' W 001°14'913.9
2015-Aug-21 19:27N 36°10' W 001°03'1213.9
2015-Aug-21 18:33N 36°09' W 000°47'  

Dump ship's entire track history